Time;durP1;ratioP1;P1;durP2;ratioP2;P2;SDS_P1;SDS_P2;PMS_P1;PMS_P2;Temp;Humidity;BMP_temperature;BMP_pressure;BME280_temperature;BME280_humidity;BME280_pressure;Samples;Min_cycle;Max_cycle;Signal;HPM_P1;HPM_P2
2022/01/30 00:01:45;;;;;;;;;;;;;;;;;;5135588;28;19911;-33
2022/01/30 00:04:11;;;;;;;;;;;;;;;;;;5135519;28;19994;-28
2022/01/30 00:06:37;;;;;;;;;;;;;;;;;;5135526;28;19911;-35
2022/01/30 00:09:05;;;;;;;;;;;;;;;;;;5135511;28;19922;-34
2022/01/30 00:11:34;;;;;;;;;;;;;;;;;;5135484;28;19968;-35
2022/01/30 00:14:03;;;;;;;;;;;;;;;;;;5134455;28;19922;-29
2022/01/30 00:16:33;;;;;;;;;;;;;;;;;;5135422;28;19911;-31
2022/01/30 00:19:07;;;;;;;;;;;;;;;;;;5135122;27;19934;-31
2022/01/30 00:21:38;;;;;;;;;;;;;;;;;;5135406;28;19918;-34
2022/01/30 00:24:13;;;;;;;;;;;;;;;;;;5135600;28;20004;-31
2022/01/30 00:26:40;;;;;;;;;;;;;;;;;;5135314;28;19912;-34
2022/01/30 00:29:06;;;;;;;;;;;;;;;;;;5135611;28;19911;-31
2022/01/30 00:31:34;;;;;;;;;;;;;;;;;;5135550;28;19915;-32
2022/01/30 00:34:00;;;;;;;;;;;;;;;;;;5135114;28;20356;-31
2022/01/30 00:36:26;;;;;;;;;;;;;;;;;;5135817;28;19912;-34
2022/01/30 00:38:52;;;;;;;;;;;;;;;;;;5135180;28;19915;-34
2022/01/30 00:41:18;;;;;;;;;;;;;;;;;;5134248;28;20311;-37
2022/01/30 00:43:44;;;;;;;;;;;;;;;;;;5134076;28;20002;-30
2022/01/30 00:46:10;;;;;;;;;;;;;;;;;;5135118;28;19907;-31
2022/01/30 00:48:36;;;;;;;;;;;;;;;;;;5135606;28;19918;-29
2022/01/30 00:51:02;;;;;;;;;;;;;;;;;;5135125;28;19911;-36
2022/01/30 00:53:28;;;;;;;;;;;;;;;;;;5136265;27;19918;-35
2022/01/30 00:55:54;;;;;;;;;;;;;;;;;;5137761;27;19907;-32
2022/01/30 00:58:20;;;;;;;;;;;;;;;;;;5137652;27;20311;-31
2022/01/30 01:00:46;;;;;;;;;;;;;;;;;;5137651;27;19922;-33
2022/01/30 01:03:12;;;;;;;;;;;;;;;;;;5138571;27;19907;-33
2022/01/30 01:05:38;;;;;;;;;;;;;;;;;;5138632;27;19984;-29
2022/01/30 01:08:13;;;;;;;;;;;;;;;;;;5138478;27;19915;-35
2022/01/30 01:12:07;;;;;;;;;;;;;;;;;;5138465;27;19964;-32
2022/01/30 01:14:04;;;;;;;;;;;;;;;;;;5124661;27;19915;-29
2022/01/30 01:24:43;;;;;;;;;;;;;;;;;;5138215;27;19919;-30
2022/01/30 01:27:09;;;;;;;;;;;;;;;;;;5138062;27;19911;-32
2022/01/30 01:29:35;;;;;;;;;;;;;;;;;;5137053;27;19915;-31
2022/01/30 01:32:03;;;;;;;;;;;;;;;;;;5138162;27;19911;-31
2022/01/30 01:34:33;;;;;;;;;;;;;;;;;;5137984;27;19907;-27
2022/01/30 01:36:59;;;;;;;;;;;;;;;;;;5137980;27;19975;-31
2022/01/30 01:39:25;;;;;;;;;;;;;;;;;;5137880;27;19922;-30
2022/01/30 01:41:51;;;;;;;;;;;;;;;;;;5137710;27;19915;-33
2022/01/30 01:44:17;;;;;;;;;;;;;;;;;;5137849;27;19990;-27
2022/01/30 01:46:45;;;;;;;;;;;;;;;;;;5137708;27;20338;-28
2022/01/30 01:49:18;;;;;;;;;;;;;;;;;;5137721;27;20334;-27
2022/01/30 01:51:49;;;;;;;;;;;;;;;;;;5136599;27;20262;-27
2022/01/30 01:54:15;;;;;;;;;;;;;;;;;;5137556;27;19907;-32
2022/01/30 01:56:41;;;;;;;;;;;;;;;;;;5136476;27;19912;-29
2022/01/30 01:59:07;;;;;;;;;;;;;;;;;;5136398;27;20389;-30
2022/01/30 02:01:33;;;;;;;;;;;;;;;;;;5136485;27;19915;-27
2022/01/30 02:03:59;;;;;;;;;;;;;;;;;;5137085;27;20273;-30
2022/01/30 02:06:27;;;;;;;;;;;;;;;;;;5137824;27;20256;-27
2022/01/30 02:09:00;;;;;;;;;;;;;;;;;;5137539;27;20238;-29
2022/01/30 02:11:39;;;;;;;;;;;;;;;;;;5137475;27;20235;-31
2022/01/30 02:27:11;;;;;;;;;;;;;;;;;;5137296;27;19968;-26
2022/01/30 02:29:37;;;;;;;;;;;;;;;;;;5136918;27;20240;-31
2022/01/30 02:32:03;;;;;;;;;;;;;;;;;;5137111;27;19923;-32
2022/01/30 02:34:29;;;;;;;;;;;;;;;;;;5135858;27;19968;-30
2022/01/30 02:36:55;;;;;;;;;;;;;;;;;;5137351;27;19940;-31
2022/01/30 02:39:22;;;;;;;;;;;;;;;;;;5136682;27;19915;-31
2022/01/30 02:41:48;;;;;;;;;;;;;;;;;;5136657;27;19911;-25
2022/01/30 02:46:44;;;;;;;;;;;;;;;;;;5137144;27;20374;-28
2022/01/30 02:52:00;;;;;;;;;;;;;;;;;;5136506;27;20000;-28
2022/01/30 02:54:26;;;;;;;;;;;;;;;;;;5136358;27;19997;-29
2022/01/30 02:56:52;;;;;;;;;;;;;;;;;;5136337;27;20003;-28
2022/01/30 02:59:18;;;;;;;;;;;;;;;;;;5136241;27;19993;-27
2022/01/30 03:01:44;;;;;;;;;;;;;;;;;;5136308;27;19954;-24
2022/01/30 03:04:10;;;;;;;;;;;;;;;;;;5136148;27;19968;-29
2022/01/30 03:06:36;;;;;;;;;;;;;;;;;;5136144;27;19911;-29
2022/01/30 03:09:02;;;;;;;;;;;;;;;;;;5136144;27;20304;-28
2022/01/30 03:11:28;;;;;;;;;;;;;;;;;;5135097;27;19954;-25
2022/01/30 03:13:54;;;;;;;;;;;;;;;;;;5135992;27;19915;-27
2022/01/30 03:16:23;;;;;;;;;;;;;;;;;;5135182;27;19949;-29
2022/01/30 03:18:49;;;;;;;;;;;;;;;;;;5135757;27;20300;-28
2022/01/30 03:21:15;;;;;;;;;;;;;;;;;;5135966;27;19933;-28
2022/01/30 03:23:41;;;;;;;;;;;;;;;;;;5135785;27;19912;-28
2022/01/30 03:26:08;;;;;;;;;;;;;;;;;;5135892;27;19940;-31
2022/01/30 03:28:34;;;;;;;;;;;;;;;;;;5134869;27;20360;-27
2022/01/30 03:31:04;;;;;;;;;;;;;;;;;;5135805;27;19907;-32
2022/01/30 03:33:30;;;;;;;;;;;;;;;;;;5135654;27;19919;-28
2022/01/30 03:35:56;;;;;;;;;;;;;;;;;;5136025;27;19964;-30
2022/01/30 03:38:22;;;;;;;;;;;;;;;;;;5135706;27;20243;-27
2022/01/30 03:40:48;;;;;;;;;;;;;;;;;;5134710;28;19908;-25
2022/01/30 03:43:14;;;;;;;;;;;;;;;;;;5135856;28;20361;-29
2022/01/30 03:45:40;;;;;;;;;;;;;;;;;;5135952;28;19914;-30
2022/01/30 03:48:06;;;;;;;;;;;;;;;;;;5135691;28;19912;-28
2022/01/30 03:50:32;;;;;;;;;;;;;;;;;;5135678;28;19907;-30
2022/01/30 03:52:59;;;;;;;;;;;;;;;;;;5135761;28;19911;-29
2022/01/30 03:55:25;;;;;;;;;;;;;;;;;;5135870;28;19915;-28
2022/01/30 03:57:51;;;;;;;;;;;;;;;;;;5135748;28;20353;-30
2022/01/30 04:00:17;;;;;;;;;;;;;;;;;;5135601;28;19971;-31
2022/01/30 04:02:43;;;;;;;;;;;;;;;;;;5135523;28;19911;-29
2022/01/30 04:05:09;;;;;;;;;;;;;;;;;;5135773;28;19907;-30
2022/01/30 04:07:35;;;;;;;;;;;;;;;;;;5135505;28;19922;-30
2022/01/30 04:10:01;;;;;;;;;;;;;;;;;;5135788;28;19908;-28
2022/01/30 04:12:27;;;;;;;;;;;;;;;;;;5135354;28;20261;-29
2022/01/30 04:14:53;;;;;;;;;;;;;;;;;;5135367;28;19908;-29
2022/01/30 04:17:19;;;;;;;;;;;;;;;;;;5135314;28;20405;-31
2022/01/30 04:19:45;;;;;;;;;;;;;;;;;;5135262;28;19930;-27
2022/01/30 04:22:11;;;;;;;;;;;;;;;;;;5135252;28;19916;-29
2022/01/30 04:24:37;;;;;;;;;;;;;;;;;;5135301;28;19908;-30
2022/01/30 04:27:03;;;;;;;;;;;;;;;;;;5134951;27;19912;-25
2022/01/30 04:29:29;;;;;;;;;;;;;;;;;;5139272;27;19911;-30
2022/01/30 04:31:55;;;;;;;;;;;;;;;;;;5139106;27;19953;-28
2022/01/30 04:34:21;;;;;;;;;;;;;;;;;;5139157;27;20294;-27
2022/01/30 04:37:26;;;;;;;;;;;;;;;;;;5139075;27;19915;-28
2022/01/30 04:51:59;;;;;;;;;;;;;;;;;;5139213;27;20225;-30
2022/01/30 04:56:51;;;;;;;;;;;;;;;;;;5139007;27;19918;-27
2022/01/30 05:01:56;;;;;;;;;;;;;;;;;;5138649;27;19977;-29
2022/01/30 05:09:32;;;;;;;;;;;;;;;;;;5139043;27;19908;-30
2022/01/30 05:11:58;;;;;;;;;;;;;;;;;;5138358;27;20358;-29
2022/01/30 05:14:28;;;;;;;;;;;;;;;;;;5138355;27;19915;-31
2022/01/30 05:16:54;;;;;;;;;;;;;;;;;;5138204;27;19918;-26
2022/01/30 05:19:20;;;;;;;;;;;;;;;;;;5137975;27;19919;-32
2022/01/30 05:21:46;;;;;;;;;;;;;;;;;;5138220;27;19939;-32
2022/01/30 05:24:11;;;;;;;;;;;;;;;;;;5138066;27;19911;-28
2022/01/30 05:26:37;;;;;;;;;;;;;;;;;;5138136;27;19918;-28
2022/01/30 05:29:03;;;;;;;;;;;;;;;;;;5137999;27;19911;-28
2022/01/30 05:31:29;;;;;;;;;;;;;;;;;;5137986;27;19922;-29
2022/01/30 05:33:55;;;;;;;;;;;;;;;;;;5137915;27;19918;-31
2022/01/30 05:36:21;;;;;;;;;;;;;;;;;;5138139;27;20260;-32
2022/01/30 05:38:47;;;;;;;;;;;;;;;;;;5136959;27;19968;-30
2022/01/30 05:41:14;;;;;;;;;;;;;;;;;;5138131;27;19916;-33
2022/01/30 05:43:41;;;;;;;;;;;;;;;;;;5137929;27;19919;-31
2022/01/30 05:46:13;;;;;;;;;;;;;;;;;;5137727;27;20353;-32
2022/01/30 05:48:39;;;;;;;;;;;;;;;;;;5137749;27;19912;-28
2022/01/30 05:51:05;;;;;;;;;;;;;;;;;;5137561;27;19911;-31
2022/01/30 05:53:32;;;;;;;;;;;;;;;;;;5137641;27;19907;-34
2022/01/30 05:55:57;;;;;;;;;;;;;;;;;;5137514;27;20269;-31
2022/01/30 05:58:23;;;;;;;;;;;;;;;;;;5136448;27;19911;-33
2022/01/30 06:00:49;;;;;;;;;;;;;;;;;;5137480;27;19968;-31
2022/01/30 06:03:15;;;;;;;;;;;;;;;;;;5137486;27;20330;-32
2022/01/30 06:05:45;;;;;;;;;;;;;;;;;;5137665;27;20359;-31
2022/01/30 06:08:27;;;;;;;;;;;;;;;;;;5137252;27;19912;-29
2022/01/30 06:10:53;;;;;;;;;;;;;;;;;;5137560;27;20322;-27
2022/01/30 06:13:19;;;;;;;;;;;;;;;;;;5137077;27;20006;-29
2022/01/30 06:15:45;;;;;;;;;;;;;;;;;;5137389;27;19961;-29
2022/01/30 06:18:11;;;;;;;;;;;;;;;;;;5136824;27;19941;-35
2022/01/30 06:20:37;;;;;;;;;;;;;;;;;;5137337;27;19915;-34
2022/01/30 06:23:03;;;;;;;;;;;;;;;;;;5136892;27;19941;-31
2022/01/30 06:25:29;;;;;;;;;;;;;;;;;;5136966;27;20258;-31
2022/01/30 06:27:55;;;;;;;;;;;;;;;;;;5136868;27;19940;-29
2022/01/30 06:30:21;;;;;;;;;;;;;;;;;;5137062;27;19911;-29
2022/01/30 06:32:48;;;;;;;;;;;;;;;;;;5136968;27;20317;-26
2022/01/30 06:35:14;;;;;;;;;;;;;;;;;;5135710;27;20326;-31
2022/01/30 06:37:40;;;;;;;;;;;;;;;;;;5136831;27;19965;-33
2022/01/30 06:40:06;;;;;;;;;;;;;;;;;;5136873;27;19934;-27
2022/01/30 06:42:32;;;;;;;;;;;;;;;;;;5136460;27;19907;-27
2022/01/30 06:44:58;;;;;;;;;;;;;;;;;;5136713;27;20318;-28
2022/01/30 06:47:24;;;;;;;;;;;;;;;;;;5136465;27;19915;-30
2022/01/30 06:49:51;;;;;;;;;;;;;;;;;;5136361;27;19911;-32
2022/01/30 06:52:16;;;;;;;;;;;;;;;;;;5136575;27;19912;-31
2022/01/30 06:54:42;;;;;;;;;;;;;;;;;;5136324;27;19914;-31
2022/01/30 06:57:08;;;;;;;;;;;;;;;;;;5136618;27;20258;-30
2022/01/30 06:59:35;;;;;;;;;;;;;;;;;;5136483;27;20395;-28
2022/01/30 07:02:01;;;;;;;;;;;;;;;;;;5136161;27;20029;-31
2022/01/30 07:04:27;;;;;;;;;;;;;;;;;;5136227;27;19958;-28
2022/01/30 07:06:53;;;;;;;;;;;;;;;;;;5136127;27;20307;-29
2022/01/30 07:09:19;;;;;;;;;;;;;;;;;;5136420;27;19961;-29
2022/01/30 07:11:45;;;;;;;;;;;;;;;;;;5136119;27;19922;-27
2022/01/30 07:14:11;;;;;;;;;;;;;;;;;;5134955;27;19911;-31
2022/01/30 07:16:37;;;;;;;;;;;;;;;;;;5136007;27;19918;-26
2022/01/30 07:19:03;;;;;;;;;;;;;;;;;;5135721;27;19931;-29
2022/01/30 07:21:31;;;;;;;;;;;;;;;;;;5135080;27;21294;-28
2022/01/30 07:23:57;;;;;;;;;;;;;;;;;;5134794;27;19960;-31
2022/01/30 07:26:23;;;;;;;;;;;;;;;;;;5136159;27;20283;-31
2022/01/30 07:28:49;;;;;;;;;;;;;;;;;;5136028;27;20358;-27
2022/01/30 07:31:15;;;;;;;;;;;;;;;;;;5135805;27;19907;-32
2022/01/30 07:33:41;;;;;;;;;;;;;;;;;;5134757;27;19911;-28
2022/01/30 07:36:07;;;;;;;;;;;;;;;;;;5136073;27;19903;-28
2022/01/30 07:38:34;;;;;;;;;;;;;;;;;;5136015;27;19919;-30
2022/01/30 07:41:00;;;;;;;;;;;;;;;;;;5135700;27;19907;-27
2022/01/30 07:43:26;;;;;;;;;;;;;;;;;;5135632;28;20045;-27
2022/01/30 07:45:52;;;;;;;;;;;;;;;;;;5135911;28;19915;-31
2022/01/30 07:48:18;;;;;;;;;;;;;;;;;;5135740;28;19911;-27
2022/01/30 07:50:44;;;;;;;;;;;;;;;;;;5135665;28;20011;-34
2022/01/30 07:53:10;;;;;;;;;;;;;;;;;;5135797;28;19922;-28
2022/01/30 07:55:36;;;;;;;;;;;;;;;;;;5135623;28;19939;-25
2022/01/30 07:58:02;;;;;;;;;;;;;;;;;;5135690;28;19972;-27
2022/01/30 08:00:28;;;;;;;;;;;;;;;;;;5135433;28;19907;-31
2022/01/30 08:02:54;;;;;;;;;;;;;;;;;;5137697;27;19916;-27
2022/01/30 08:05:20;;;;;;;;;;;;;;;;;;5139757;27;19907;-30
2022/01/30 08:07:46;;;;;;;;;;;;;;;;;;5139656;27;20350;-26
2022/01/30 08:10:12;;;;;;;;;;;;;;;;;;5139627;27;19912;-29
2022/01/30 08:12:38;;;;;;;;;;;;;;;;;;5139796;27;19915;-28
2022/01/30 08:15:05;;;;;;;;;;;;;;;;;;5139522;27;19917;-26
2022/01/30 08:17:32;;;;;;;;;;;;;;;;;;5139215;27;20276;-32
2022/01/30 08:19:58;;;;;;;;;;;;;;;;;;5139427;27;20357;-30
2022/01/30 08:22:28;;;;;;;;;;;;;;;;;;5138320;27;20018;-27
2022/01/30 08:24:54;;;;;;;;;;;;;;;;;;5139311;27;19911;-25
2022/01/30 08:27:20;;;;;;;;;;;;;;;;;;5139298;27;19918;-27
2022/01/30 08:29:46;;;;;;;;;;;;;;;;;;5138334;27;19994;-27
2022/01/30 08:32:13;;;;;;;;;;;;;;;;;;5139168;27;19912;-25
2022/01/30 08:34:39;;;;;;;;;;;;;;;;;;5139136;27;19958;-29
2022/01/30 08:37:05;;;;;;;;;;;;;;;;;;5139168;27;19969;-29
2022/01/30 08:39:31;;;;;;;;;;;;;;;;;;5139204;27;19915;-25
2022/01/30 08:41:57;;;;;;;;;;;;;;;;;;5138993;27;19914;-28
2022/01/30 08:44:23;;;;;;;;;;;;;;;;;;5138961;27;19911;-31
2022/01/30 08:46:49;;;;;;;;;;;;;;;;;;5137925;27;20003;-30
2022/01/30 08:49:15;;;;;;;;;;;;;;;;;;5137872;27;19915;-28
2022/01/30 08:51:41;;;;;;;;;;;;;;;;;;5138828;27;19976;-31
2022/01/30 08:54:07;;;;;;;;;;;;;;;;;;5138604;27;19911;-31
2022/01/30 08:56:33;;;;;;;;;;;;;;;;;;5138755;27;19964;-26
2022/01/30 08:58:59;;;;;;;;;;;;;;;;;;5139069;27;20346;-27
2022/01/30 09:01:30;;;;;;;;;;;;;;;;;;5138638;27;19965;-30
2022/01/30 09:03:56;;;;;;;;;;;;;;;;;;5138829;27;19911;-28
2022/01/30 09:06:22;;;;;;;;;;;;;;;;;;5138535;27;19908;-27
2022/01/30 09:08:48;;;;;;;;;;;;;;;;;;5138463;27;19943;-26
2022/01/30 09:11:14;;;;;;;;;;;;;;;;;;5138759;27;20386;-26
2022/01/30 09:13:40;;;;;;;;;;;;;;;;;;5137047;27;20236;-26
2022/01/30 09:16:06;;;;;;;;;;;;;;;;;;5138630;27;19922;-29
2022/01/30 09:18:32;;;;;;;;;;;;;;;;;;5138019;27;20246;-32
2022/01/30 09:20:58;;;;;;;;;;;;;;;;;;5138508;27;19915;-28
2022/01/30 09:23:25;;;;;;;;;;;;;;;;;;5138129;27;20441;-26
2022/01/30 09:25:51;;;;;;;;;;;;;;;;;;5138150;27;19994;-26
2022/01/30 09:28:17;;;;;;;;;;;;;;;;;;5138302;27;19962;-28
2022/01/30 09:30:43;;;;;;;;;;;;;;;;;;5138034;27;20254;-28
2022/01/30 09:33:09;;;;;;;;;;;;;;;;;;5137923;27;19954;-28
2022/01/30 09:35:35;;;;;;;;;;;;;;;;;;5138012;27;19954;-32
2022/01/30 09:38:01;;;;;;;;;;;;;;;;;;5136885;27;19916;-31
2022/01/30 09:40:27;;;;;;;;;;;;;;;;;;5138161;27;20257;-27
2022/01/30 09:42:53;;;;;;;;;;;;;;;;;;5138081;27;19930;-26
2022/01/30 09:45:20;;;;;;;;;;;;;;;;;;5137739;27;19972;-29
2022/01/30 09:47:46;;;;;;;;;;;;;;;;;;5137966;27;19923;-29
2022/01/30 09:50:12;;;;;;;;;;;;;;;;;;5136918;27;19908;-28
2022/01/30 09:52:38;;;;;;;;;;;;;;;;;;5137560;27;19922;-30
2022/01/30 09:55:04;;;;;;;;;;;;;;;;;;5136653;27;19911;-30
2022/01/30 09:57:30;;;;;;;;;;;;;;;;;;5137647;27;19953;-28
2022/01/30 09:59:56;;;;;;;;;;;;;;;;;;5137625;27;19941;-27
2022/01/30 10:02:26;;;;;;;;;;;;;;;;;;5137331;27;19971;-25
2022/01/30 10:04:51;;;;;;;;;;;;;;;;;;5136389;27;19912;-31
2022/01/30 10:07:20;;;;;;;;;;;;;;;;;;5137614;27;19919;-31
2022/01/30 10:09:50;;;;;;;;;;;;;;;;;;5137232;27;20278;-30
2022/01/30 10:12:19;;;;;;;;;;;;;;;;;;5137359;27;19911;-32
2022/01/30 10:14:45;;;;;;;;;;;;;;;;;;5137251;27;19983;-30
2022/01/30 10:17:11;;;;;;;;;;;;;;;;;;5137242;27;20258;-32
2022/01/30 10:19:37;;;;;;;;;;;;;;;;;;5136911;27;19919;-29
2022/01/30 10:22:03;;;;;;;;;;;;;;;;;;5137272;27;19908;-26
2022/01/30 10:24:29;;;;;;;;;;;;;;;;;;5137069;27;19912;-33
2022/01/30 10:26:59;;;;;;;;;;;;;;;;;;5136991;27;19912;-31
2022/01/30 10:29:25;;;;;;;;;;;;;;;;;;5136898;27;19912;-35
2022/01/30 10:31:51;;;;;;;;;;;;;;;;;;5136981;27;19919;-34
2022/01/30 10:34:17;;;;;;;;;;;;;;;;;;5136778;27;20327;-26
2022/01/30 10:36:43;;;;;;;;;;;;;;;;;;5135749;27;20324;-34
2022/01/30 10:39:13;;;;;;;;;;;;;;;;;;5135584;27;19926;-33
2022/01/30 10:41:41;;;;;;;;;;;;;;;;;;5136847;27;19915;-31
2022/01/30 10:44:07;;;;;;;;;;;;;;;;;;5136535;27;19907;-34
2022/01/30 10:46:33;;;;;;;;;;;;;;;;;;5136514;27;19973;-31
2022/01/30 10:48:59;;;;;;;;;;;;;;;;;;5136756;27;19918;-32
2022/01/30 10:51:25;;;;;;;;;;;;;;;;;;5136708;27;19916;-26
2022/01/30 10:53:52;;;;;;;;;;;;;;;;;;5136424;27;20307;-31
2022/01/30 10:56:17;;;;;;;;;;;;;;;;;;5136422;27;19911;-29
2022/01/30 10:58:43;;;;;;;;;;;;;;;;;;5136314;27;20318;-28
2022/01/30 11:01:09;;;;;;;;;;;;;;;;;;5136280;27;19996;-29
2022/01/30 11:03:36;;;;;;;;;;;;;;;;;;5136264;27;19915;-29
2022/01/30 11:06:02;;;;;;;;;;;;;;;;;;5136166;27;19994;-31
2022/01/30 11:08:33;;;;;;;;;;;;;;;;;;5136212;27;19911;-30
2022/01/30 11:10:59;;;;;;;;;;;;;;;;;;5136481;27;19920;-30
2022/01/30 11:13:32;;;;;;;;;;;;;;;;;;5136007;27;20403;-28
2022/01/30 11:16:55;;;;;;;;;;;;;;;;;;5136722;27;19911;-29
2022/01/30 11:18:44;;;;;;;;;;;;;;;;;;5135570;27;19962;-28
2022/01/30 11:21:10;;;;;;;;;;;;;;;;;;5136231;27;19912;-32
2022/01/30 11:23:36;;;;;;;;;;;;;;;;;;5135936;27;20234;-28
2022/01/30 11:26:02;;;;;;;;;;;;;;;;;;5135945;27;20005;-33
2022/01/30 11:28:28;;;;;;;;;;;;;;;;;;5134861;27;20001;-28
2022/01/30 11:30:54;;;;;;;;;;;;;;;;;;5136093;27;19911;-28
2022/01/30 11:33:20;;;;;;;;;;;;;;;;;;5135748;27;19998;-26
2022/01/30 11:35:46;;;;;;;;;;;;;;;;;;5135993;27;19912;-29
2022/01/30 11:38:12;;;;;;;;;;;;;;;;;;5134935;27;19916;-30
2022/01/30 11:40:38;;;;;;;;;;;;;;;;;;5135677;27;19911;-33
2022/01/30 11:43:04;;;;;;;;;;;;;;;;;;5134584;27;19918;-31
2022/01/30 11:45:32;;;;;;;;;;;;;;;;;;5134628;28;19911;-31
2022/01/30 11:48:06;;;;;;;;;;;;;;;;;;5134588;28;19998;-29
2022/01/30 11:50:32;;;;;;;;;;;;;;;;;;5135629;28;19907;-28
2022/01/30 11:52:58;;;;;;;;;;;;;;;;;;5135480;28;19911;-27
2022/01/30 11:55:24;;;;;;;;;;;;;;;;;;5136191;28;19912;-25
2022/01/30 11:57:50;;;;;;;;;;;;;;;;;;5134448;28;20215;-31
2022/01/30 12:00:16;;;;;;;;;;;;;;;;;;5135497;28;19918;-32
2022/01/30 12:02:42;;;;;;;;;;;;;;;;;;5134384;28;20279;-28
2022/01/30 12:05:08;;;;;;;;;;;;;;;;;;5135543;28;19907;-27
2022/01/30 12:07:34;;;;;;;;;;;;;;;;;;5135427;28;19918;-25
2022/01/30 12:10:00;;;;;;;;;;;;;;;;;;5135440;28;19922;-26
2022/01/30 12:12:26;;;;;;;;;;;;;;;;;;5135413;28;20258;-33
2022/01/30 12:14:52;;;;;;;;;;;;;;;;;;5134371;28;20254;-26
2022/01/30 12:17:18;;;;;;;;;;;;;;;;;;5135463;28;19908;-32
2022/01/30 12:19:47;;;;;;;;;;;;;;;;;;5135043;27;19919;-31
2022/01/30 12:22:13;;;;;;;;;;;;;;;;;;5135273;28;20334;-28
2022/01/30 12:24:39;;;;;;;;;;;;;;;;;;5135574;28;19995;-32
2022/01/30 12:27:05;;;;;;;;;;;;;;;;;;5134515;28;19919;-34
2022/01/30 12:29:31;;;;;;;;;;;;;;;;;;5134296;28;19908;-26
2022/01/30 12:31:57;;;;;;;;;;;;;;;;;;5135141;28;20246;-32
2022/01/30 12:34:23;;;;;;;;;;;;;;;;;;5135468;28;19911;-28
2022/01/30 12:36:49;;;;;;;;;;;;;;;;;;5135418;28;19912;-27
2022/01/30 12:39:16;;;;;;;;;;;;;;;;;;5135128;28;19922;-31
2022/01/30 12:41:42;;;;;;;;;;;;;;;;;;5135438;28;19930;-34
2022/01/30 12:44:08;;;;;;;;;;;;;;;;;;5135016;28;19912;-31
2022/01/30 12:46:34;;;;;;;;;;;;;;;;;;5135304;28;20294;-30
2022/01/30 12:49:00;;;;;;;;;;;;;;;;;;5137213;27;19907;-29
2022/01/30 12:51:26;;;;;;;;;;;;;;;;;;5139023;27;19911;-30
2022/01/30 12:53:52;;;;;;;;;;;;;;;;;;5138697;27;20343;-29
2022/01/30 12:56:18;;;;;;;;;;;;;;;;;;5138721;27;19998;-27
2022/01/30 12:58:45;;;;;;;;;;;;;;;;;;5138853;27;19919;-28
2022/01/30 13:01:11;;;;;;;;;;;;;;;;;;5138678;27;19911;-28
2022/01/30 13:03:37;;;;;;;;;;;;;;;;;;5138800;27;19922;-32
2022/01/30 13:06:03;;;;;;;;;;;;;;;;;;5138530;27;19911;-28
2022/01/30 13:08:29;;;;;;;;;;;;;;;;;;5138498;27;19911;-31
2022/01/30 13:10:55;;;;;;;;;;;;;;;;;;5138720;27;19915;-27
2022/01/30 13:13:21;;;;;;;;;;;;;;;;;;5138348;27;19933;-32
2022/01/30 13:15:47;;;;;;;;;;;;;;;;;;5138682;27;19911;-29
2022/01/30 13:18:13;;;;;;;;;;;;;;;;;;5138244;27;19941;-30
2022/01/30 13:20:39;;;;;;;;;;;;;;;;;;5138457;27;19919;-28
2022/01/30 13:23:05;;;;;;;;;;;;;;;;;;5138107;27;20288;-27
2022/01/30 13:25:31;;;;;;;;;;;;;;;;;;5138184;27;20281;-28
2022/01/30 13:27:57;;;;;;;;;;;;;;;;;;5137084;27;19922;-26
2022/01/30 13:30:23;;;;;;;;;;;;;;;;;;5137060;27;19918;-30
2022/01/30 13:32:49;;;;;;;;;;;;;;;;;;5137905;27;19923;-27
2022/01/30 13:35:15;;;;;;;;;;;;;;;;;;5138064;27;19911;-33
2022/01/30 13:37:42;;;;;;;;;;;;;;;;;;5137902;27;19911;-30
2022/01/30 13:40:14;;;;;;;;;;;;;;;;;;5137910;27;19918;-30
2022/01/30 13:42:47;;;;;;;;;;;;;;;;;;5137293;27;19969;-29
2022/01/30 13:47:45;;;;;;;;;;;;;;;;;;5137837;27;20411;-28
2022/01/30 13:50:11;;;;;;;;;;;;;;;;;;5138004;27;19912;-32
2022/01/30 13:52:37;;;;;;;;;;;;;;;;;;5137594;27;19918;-28
2022/01/30 13:55:05;;;;;;;;;;;;;;;;;;5137633;27;20369;-28
2022/01/30 13:57:31;;;;;;;;;;;;;;;;;;5137790;27;19946;-26
2022/01/30 13:59:57;;;;;;;;;;;;;;;;;;5136784;27;19922;-30
2022/01/30 14:02:23;;;;;;;;;;;;;;;;;;5137383;27;20303;-30
2022/01/30 14:04:49;;;;;;;;;;;;;;;;;;5136333;27;20002;-32
2022/01/30 14:07:15;;;;;;;;;;;;;;;;;;5137625;27;20388;-33
2022/01/30 14:09:48;;;;;;;;;;;;;;;;;;5137280;27;20346;-30
2022/01/30 14:12:15;;;;;;;;;;;;;;;;;;5137473;27;19922;-27
2022/01/30 14:14:41;;;;;;;;;;;;;;;;;;5137139;27;19939;-29
2022/01/30 14:17:09;;;;;;;;;;;;;;;;;;5136724;27;20237;-30
2022/01/30 14:19:42;;;;;;;;;;;;;;;;;;5136730;27;19923;-31
2022/01/30 14:22:08;;;;;;;;;;;;;;;;;;5137197;27;19912;-29
2022/01/30 14:24:34;;;;;;;;;;;;;;;;;;5135966;27;20376;-30
2022/01/30 14:27:00;;;;;;;;;;;;;;;;;;5137170;27;19998;-30
2022/01/30 14:29:25;;;;;;;;;;;;;;;;;;5135853;27;20364;-30
2022/01/30 14:31:52;;;;;;;;;;;;;;;;;;5136945;27;19907;-25
2022/01/30 14:34:17;;;;;;;;;;;;;;;;;;5136770;27;19916;-29
2022/01/30 14:36:43;;;;;;;;;;;;;;;;;;5136723;27;19907;-26
2022/01/30 14:39:11;;;;;;;;;;;;;;;;;;5135641;27;19926;-27
2022/01/30 14:41:37;;;;;;;;;;;;;;;;;;5136850;27;20350;-28
2022/01/30 14:44:03;;;;;;;;;;;;;;;;;;5136574;27;19915;-26
2022/01/30 14:46:29;;;;;;;;;;;;;;;;;;5135519;27;20354;-31
2022/01/30 14:48:55;;;;;;;;;;;;;;;;;;5136725;27;19986;-28
2022/01/30 14:51:21;;;;;;;;;;;;;;;;;;5136457;27;20002;-26
2022/01/30 14:53:47;;;;;;;;;;;;;;;;;;5136254;27;19947;-29
2022/01/30 14:56:13;;;;;;;;;;;;;;;;;;5136364;27;19920;-27
2022/01/30 14:58:39;;;;;;;;;;;;;;;;;;5136256;27;19919;-30
2022/01/30 15:01:05;;;;;;;;;;;;;;;;;;5136319;27;19918;-30
2022/01/30 15:03:33;;;;;;;;;;;;;;;;;;5136476;27;19961;-29
2022/01/30 15:05:59;;;;;;;;;;;;;;;;;;5136339;27;20349;-26
2022/01/30 15:08:25;;;;;;;;;;;;;;;;;;5136452;27;19922;-34
2022/01/30 15:10:51;;;;;;;;;;;;;;;;;;5136028;27;19919;-35
2022/01/30 15:13:20;;;;;;;;;;;;;;;;;;5135290;27;19919;-29
2022/01/30 15:15:46;;;;;;;;;;;;;;;;;;5136263;27;19908;-30
2022/01/30 15:18:20;;;;;;;;;;;;;;;;;;5136232;27;19988;-33
2022/01/30 15:20:46;;;;;;;;;;;;;;;;;;5136051;27;19911;-31
2022/01/30 15:23:12;;;;;;;;;;;;;;;;;;5135938;27;19912;-27
2022/01/30 15:25:38;;;;;;;;;;;;;;;;;;5135872;27;20027;-32
2022/01/30 15:28:04;;;;;;;;;;;;;;;;;;5136136;27;20006;-31
2022/01/30 15:30:30;;;;;;;;;;;;;;;;;;5135822;27;19912;-31
2022/01/30 15:32:56;;;;;;;;;;;;;;;;;;5135717;27;19907;-30
2022/01/30 15:35:24;;;;;;;;;;;;;;;;;;5135734;27;20250;-33
2022/01/30 15:37:50;;;;;;;;;;;;;;;;;;5135613;27;19911;-31
2022/01/30 15:40:17;;;;;;;;;;;;;;;;;;5134711;27;19911;-35
2022/01/30 15:42:43;;;;;;;;;;;;;;;;;;5135887;27;19911;-29
2022/01/30 15:50:21;;;;;;;;;;;;;;;;;;5135949;28;19915;-29
2022/01/30 15:52:46;;;;;;;;;;;;;;;;;;5134470;28;20239;-29
2022/01/30 15:55:13;;;;;;;;;;;;;;;;;;5134667;28;19907;-27
2022/01/30 15:57:39;;;;;;;;;;;;;;;;;;5135750;28;19919;-28
2022/01/30 16:00:05;;;;;;;;;;;;;;;;;;5135419;28;19922;-26
2022/01/30 16:02:30;;;;;;;;;;;;;;;;;;5135405;28;19912;-30
2022/01/30 16:04:56;;;;;;;;;;;;;;;;;;5135562;28;19915;-31
2022/01/30 16:07:23;;;;;;;;;;;;;;;;;;5135702;28;20250;-26
2022/01/30 16:09:53;;;;;;;;;;;;;;;;;;5135659;28;20300;-28
2022/01/30 16:17:49;;;;;;;;;;;;;;;;;;5135079;28;19945;-25
2022/01/30 16:20:16;;;;;;;;;;;;;;;;;;5134419;28;19916;-28
2022/01/30 16:22:42;;;;;;;;;;;;;;;;;;5135370;27;20262;-27
2022/01/30 16:25:08;;;;;;;;;;;;;;;;;;5139350;27;20258;-25
2022/01/30 16:27:34;;;;;;;;;;;;;;;;;;5139292;27;19918;-30
2022/01/30 16:30:01;;;;;;;;;;;;;;;;;;5139226;27;19965;-32
2022/01/30 16:32:27;;;;;;;;;;;;;;;;;;5139130;27;20243;-32
2022/01/30 16:34:53;;;;;;;;;;;;;;;;;;5139094;27;19915;-30
2022/01/30 16:37:19;;;;;;;;;;;;;;;;;;5139161;27;19911;-27
2022/01/30 16:39:45;;;;;;;;;;;;;;;;;;5138987;27;19963;-29
2022/01/30 16:42:11;;;;;;;;;;;;;;;;;;5137946;27;19960;-31
2022/01/30 16:44:40;;;;;;;;;;;;;;;;;;5138923;27;20338;-27
2022/01/30 16:49:48;;;;;;;;;;;;;;;;;;5138888;27;20002;-26
2022/01/30 16:52:14;;;;;;;;;;;;;;;;;;5139014;27;19912;-28
2022/01/30 16:54:40;;;;;;;;;;;;;;;;;;5139007;27;20283;-33
2022/01/30 16:57:06;;;;;;;;;;;;;;;;;;5138771;27;19916;-30
2022/01/30 16:59:32;;;;;;;;;;;;;;;;;;5138644;27;19918;-31
2022/01/30 17:01:58;;;;;;;;;;;;;;;;;;5138631;27;19912;-30
2022/01/30 17:04:24;;;;;;;;;;;;;;;;;;5138561;27;19916;-25
2022/01/30 17:06:50;;;;;;;;;;;;;;;;;;5138539;27;19961;-27
2022/01/30 17:09:34;;;;;;;;;;;;;;;;;;5138762;27;19915;-29
2022/01/30 17:12:19;;;;;;;;;;;;;;;;;;5138905;27;19919;-27
2022/01/30 17:14:50;;;;;;;;;;;;;;;;;;5138452;27;19995;-30
2022/01/30 17:17:17;;;;;;;;;;;;;;;;;;5137435;27;20406;-30
2022/01/30 17:19:43;;;;;;;;;;;;;;;;;;5138037;27;19935;-27
2022/01/30 17:22:09;;;;;;;;;;;;;;;;;;5137134;27;20269;-34
2022/01/30 17:24:35;;;;;;;;;;;;;;;;;;5138168;27;19911;-26
2022/01/30 17:27:01;;;;;;;;;;;;;;;;;;5138450;27;20342;-27
2022/01/30 17:29:27;;;;;;;;;;;;;;;;;;5138145;27;19918;-32
2022/01/30 17:31:53;;;;;;;;;;;;;;;;;;5137999;27;20346;-28
2022/01/30 17:34:19;;;;;;;;;;;;;;;;;;5137351;27;19908;-28
2022/01/30 17:36:46;;;;;;;;;;;;;;;;;;5137833;27;19998;-28
2022/01/30 17:39:12;;;;;;;;;;;;;;;;;;5137860;27;19916;-27
2022/01/30 17:41:38;;;;;;;;;;;;;;;;;;5138320;27;20305;-33
2022/01/30 17:44:04;;;;;;;;;;;;;;;;;;5137844;27;19915;-33
2022/01/30 17:46:30;;;;;;;;;;;;;;;;;;5138814;27;19939;-31
2022/01/30 17:48:56;;;;;;;;;;;;;;;;;;5137751;27;20311;-28